createdAt,value
2017-10-19T00:00:56.011Z,79.32
2017-10-19T00:02:06.484Z,78.84
2017-10-19T00:03:16.883Z,78.74
2017-10-19T00:04:27.291Z,79.03
2017-10-19T00:05:37.362Z,79.22
2017-10-19T00:06:47.765Z,79.22
2017-10-19T00:07:57.841Z,79.22
2017-10-19T00:09:08.280Z,79.32
2017-10-19T00:10:18.715Z,79.32
2017-10-19T00:11:29.127Z,79.32
2017-10-19T00:12:39.193Z,79.32
2017-10-19T00:13:49.645Z,79.03
2017-10-19T00:14:59.708Z,79.03
2017-10-19T00:16:09.462Z,78.93
2017-10-19T00:17:19.553Z,79.32
2017-10-19T00:18:29.622Z,79.41
2017-10-19T00:19:39.708Z,79.13
2017-10-19T00:20:50.111Z,79.03
2017-10-19T00:21:59.851Z,79.22
2017-10-19T00:23:09.944Z,79.7
2017-10-19T00:24:20.010Z,79.6
2017-10-19T00:25:30.403Z,79.8
2017-10-19T00:26:40.813Z,79.7
2017-10-19T00:27:51.223Z,79.7
2017-10-19T00:29:01.616Z,79.03
2017-10-19T00:30:12.006Z,79.22
2017-10-19T00:31:21.802Z,79.13
2017-10-19T00:32:31.878Z,79.32
2017-10-19T00:33:41.942Z,79.32
2017-10-19T00:34:52.343Z,79.41
2017-10-19T00:36:02.750Z,79.13
2017-10-19T00:37:12.885Z,79.03
2017-10-19T00:38:24.165Z,79.13
2017-10-19T00:39:35.303Z,79.13
2017-10-19T00:40:45.366Z,79.22
2017-10-19T00:41:55.767Z,79.32
2017-10-19T00:43:06.167Z,79.32
2017-10-19T00:44:16.580Z,79.22
2017-10-19T00:45:26.338Z,79.41
2017-10-19T00:46:36.759Z,79.32
2017-10-19T00:47:47.173Z,79.41
2017-10-19T00:48:57.289Z,79.22
2017-10-19T00:50:07.342Z,79.22
2017-10-19T00:51:17.418Z,79.32
2017-10-19T00:52:27.505Z,79.32
2017-10-19T00:53:37.924Z,79.13
2017-10-19T00:54:48.050Z,79.13
2017-10-19T00:55:58.445Z,79.22
2017-10-19T00:57:08.529Z,79.13
2017-10-19T00:58:18.603Z,79.13
2017-10-19T00:59:29.015Z,79.37
2017-10-19T01:00:39.488Z,79.13
2017-10-19T01:01:49.903Z,79.32
2017-10-19T01:03:00.355Z,78.99
2017-10-19T01:04:10.445Z,79.37
2017-10-19T01:05:20.846Z,79.08
2017-10-19T01:06:30.973Z,79.13
2017-10-19T01:07:41.101Z,79.13
2017-10-19T01:08:51.498Z,79.32
2017-10-19T01:10:01.889Z,79.22
2017-10-19T01:11:11.979Z,79.03
2017-10-19T01:12:22.373Z,79.41
2017-10-19T01:13:32.775Z,79.37
2017-10-19T01:14:42.848Z,79.41
2017-10-19T01:15:52.939Z,79.37
2017-10-19T01:17:03.008Z,79.08
2017-10-19T01:18:13.448Z,79.18
2017-10-19T01:19:23.504Z,79.51
2017-10-19T01:20:33.905Z,79.47
2017-10-19T01:21:43.975Z,79.66
2017-10-19T01:22:54.393Z,79.57
2017-10-19T01:24:04.236Z,79.47
2017-10-19T01:25:14.621Z,79.28
2017-10-19T01:26:25.010Z,79.47
2017-10-19T01:27:34.762Z,79.66
2017-10-19T01:28:44.831Z,79.37
2017-10-19T01:29:55.216Z,79.47
2017-10-19T01:31:05.286Z,79.47
2017-10-19T01:32:15.694Z,79.47
2017-10-19T01:33:25.764Z,79.75
2017-10-19T01:34:36.153Z,79.47
2017-10-19T01:35:46.600Z,79.47
2017-10-19T01:36:56.984Z,79.47
2017-10-19T01:38:07.072Z,79.57
2017-10-19T01:39:17.487Z,79.28
2017-10-19T01:40:27.887Z,79.47
2017-10-19T01:41:38.340Z,79.47
2017-10-19T01:42:48.409Z,79.57
2017-10-19T01:43:58.813Z,79.37
2017-10-19T01:45:09.205Z,79.66
2017-10-19T01:46:19.287Z,79.57
2017-10-19T01:47:29.697Z,79.57
2017-10-19T01:48:40.110Z,79.47
2017-10-19T01:49:50.174Z,79.28
2017-10-19T01:51:00.252Z,79.47
2017-10-19T01:52:10.648Z,79.47
2017-10-19T01:53:20.790Z,79.47
2017-10-19T01:54:30.886Z,79.66
2017-10-19T01:55:41.280Z,79.47
2017-10-19T01:56:51.684Z,79.37
2017-10-19T01:58:02.097Z,79.47
2017-10-19T01:59:12.572Z,79.66
2017-10-19T02:00:23.815Z,79.66
2017-10-19T02:01:33.885Z,79.85
2017-10-19T02:02:44.280Z,79.75
2017-10-19T02:03:54.332Z,79.75
2017-10-19T02:05:04.748Z,79.85
2017-10-19T02:06:14.496Z,79.85
2017-10-19T02:07:24.562Z,79.85
2017-10-19T02:08:34.615Z,79.81
2017-10-19T02:09:45.016Z,79.43
2017-10-19T02:10:55.086Z,79.43
2017-10-19T02:12:05.491Z,79.43
2017-10-19T02:13:15.902Z,79.43
2017-10-19T02:14:25.977Z,79.52
2017-10-19T02:15:36.055Z,79.62
2017-10-19T02:16:45.806Z,79.52
2017-10-19T02:17:56.199Z,79.43
2017-10-19T02:19:06.294Z,79.62
2017-10-19T02:20:16.700Z,79.43
2017-10-19T02:21:27.097Z,79.43
2017-10-19T02:22:37.554Z,79.72
2017-10-19T02:23:47.955Z,79.91
2017-10-19T02:24:58.344Z,79.81
2017-10-19T02:26:08.740Z,79.72
2017-10-19T02:27:19.132Z,79.43
2017-10-19T02:28:29.191Z,79.43
2017-10-19T02:29:39.596Z,79.33
2017-10-19T02:30:49.648Z,79.52
2017-10-19T02:32:00.064Z,79.62
2017-10-19T02:33:10.483Z,79.43
2017-10-19T02:34:20.891Z,79.43
2017-10-19T02:35:30.975Z,79.28
2017-10-19T02:36:41.421Z,79.47
2017-10-19T02:37:51.828Z,79.47
2017-10-19T02:39:02.234Z,79.47
2017-10-19T02:40:12.641Z,79.72
2017-10-19T02:41:23.054Z,79.57
2017-10-19T02:42:33.484Z,79.08
2017-10-19T02:43:43.887Z,79.57
2017-10-19T02:44:54.283Z,79.37
2017-10-19T02:46:04.749Z,79.18
2017-10-19T02:47:14.816Z,79.08
2017-10-19T02:48:25.225Z,79.08
2017-10-19T02:49:35.306Z,78.99
2017-10-19T02:50:45.367Z,79.18
2017-10-19T02:51:55.766Z,79.08
2017-10-19T02:53:05.841Z,79.08
2017-10-19T02:54:16.246Z,79.08
2017-10-19T02:55:26.670Z,79.14
2017-10-19T02:56:37.065Z,79.08
2017-10-19T02:57:48.356Z,79.08
2017-10-19T02:58:58.417Z,79.37
2017-10-19T03:00:08.482Z,79.14
2017-10-19T03:01:18.566Z,78.99
2017-10-19T03:33:48.868Z,75.35
2017-10-19T03:34:59.250Z,75.83
2017-10-19T03:36:09.637Z,77.17
2017-10-19T03:37:20.042Z,78.13
2017-10-19T03:38:30.444Z,78.7
2017-10-19T03:39:40.892Z,78.79
2017-10-19T03:40:50.961Z,79.36
2017-10-19T03:42:01.359Z,79.27
2017-10-19T03:43:11.446Z,79.08
2017-10-19T03:44:21.538Z,79.5
2017-10-19T03:45:31.984Z,79.79
2017-10-19T03:46:42.401Z,79.98
2017-10-19T03:47:52.463Z,79.93
2017-10-19T03:49:02.533Z,79.83
2017-10-19T03:50:12.283Z,80.02
2017-10-19T03:51:22.729Z,80.11
2017-10-19T03:52:33.145Z,79.44
2017-10-19T03:53:43.550Z,79.68
2017-10-19T03:54:53.945Z,79.39
2017-10-19T03:56:04.350Z,79.39
2017-10-19T03:57:14.423Z,79.2
2017-10-19T03:58:24.821Z,79.49
2017-10-19T03:59:35.222Z,79.52
2017-10-19T04:00:45.622Z,79.33
2017-10-19T04:01:56.017Z,79.72
2017-10-19T04:03:06.467Z,79.62
2017-10-19T04:04:16.874Z,79.62
2017-10-19T04:05:27.292Z,79.52
2017-10-19T04:06:37.353Z,79.62
2017-10-19T04:07:47.763Z,79.28
2017-10-19T04:08:57.867Z,79.43
2017-10-19T04:10:07.956Z,79.47
2017-10-19T04:11:18.016Z,79.47
2017-10-19T04:12:28.085Z,79.37
2017-10-19T04:13:38.160Z,79.47
2017-10-19T04:14:48.293Z,79.66
2017-10-19T04:15:58.676Z,79.57
2017-10-19T04:17:09.085Z,79.47
2017-10-19T04:18:19.483Z,79.57
2017-10-19T04:19:29.874Z,79.47
2017-10-19T04:20:40.278Z,79.75
2017-10-19T04:21:50.690Z,79.66
2017-10-19T04:23:01.089Z,79.66
2017-10-19T04:24:11.488Z,79.66
2017-10-19T04:25:21.890Z,79.28
2017-10-19T04:26:32.352Z,79.57
2017-10-19T04:27:43.005Z,79.47
2017-10-19T04:28:53.088Z,79.57
2017-10-19T04:30:03.490Z,79.28
2017-10-19T04:31:13.576Z,79.47
2017-10-19T04:32:23.970Z,79.66
2017-10-19T04:33:34.040Z,79.66
2017-10-19T04:34:44.426Z,79.47
2017-10-19T04:35:54.845Z,79.66
2017-10-19T04:37:04.922Z,79.57
2017-10-19T04:38:15.377Z,79.66
2017-10-19T04:39:25.776Z,79.66
2017-10-19T04:40:36.179Z,79.57
2017-10-19T04:41:46.240Z,79.66
2017-10-19T04:42:56.640Z,79.47
2017-10-19T04:44:06.788Z,79.57
2017-10-19T04:45:16.858Z,79.57
2017-10-19T04:46:27.257Z,79.75
2017-10-19T04:47:37.644Z,79.85
2017-10-19T04:48:47.709Z,79.85
2017-10-19T04:49:58.161Z,79.85
2017-10-19T04:51:08.567Z,79.66
2017-10-19T04:52:18.989Z,79.37
2017-10-19T04:53:29.068Z,79.57
2017-10-19T04:54:39.479Z,79.57
2017-10-19T04:55:49.942Z,79.57
2017-10-19T04:57:00.343Z,79.37
2017-10-19T04:58:10.762Z,79.57
2017-10-19T04:59:21.187Z,79.57
2017-10-19T05:00:31.612Z,79.28
2017-10-19T05:01:42.054Z,79.57
2017-10-19T05:02:51.800Z,79.47
2017-10-19T05:04:02.194Z,79.66
2017-10-19T05:05:11.932Z,79.47
2017-10-19T05:06:21.996Z,79.7
2017-10-19T05:07:32.445Z,79.7
2017-10-19T05:08:43.587Z,79.7
2017-10-19T05:09:53.676Z,79.32
2017-10-19T05:11:04.071Z,79.28
2017-10-19T05:12:14.469Z,79.37
2017-10-19T05:13:24.591Z,79.6
2017-10-19T05:14:34.656Z,79.66
2017-10-19T05:15:45.055Z,79.18
2017-10-19T05:16:55.463Z,79.6
2017-10-19T05:18:05.545Z,79.66
2017-10-19T05:19:15.635Z,79.47
2017-10-19T05:20:26.036Z,79.51
2017-10-19T05:21:36.432Z,79.51
2017-10-19T05:22:46.833Z,79.51
2017-10-19T05:23:56.935Z,79.51
2017-10-19T05:25:07.359Z,79.7
2017-10-19T05:26:17.755Z,79.51
2017-10-19T05:27:28.163Z,79.41
2017-10-19T05:28:38.218Z,79.32
2017-10-19T05:29:48.628Z,79.51
2017-10-19T05:30:59.074Z,79.6
2017-10-19T05:32:09.153Z,79.66
2017-10-19T05:33:19.550Z,79.7
2017-10-19T05:34:29.951Z,79.51
2017-10-19T05:35:40.035Z,79.51
2017-10-19T05:36:50.437Z,79.7
2017-10-19T05:38:00.848Z,79.41
2017-10-19T05:39:11.245Z,79.41
2017-10-19T05:40:21.330Z,79.51
2017-10-19T05:41:31.395Z,79.32
2017-10-19T05:42:41.859Z,79.51
2017-10-19T05:43:51.958Z,79.6
2017-10-19T05:45:02.347Z,79.28
2017-10-19T05:46:12.742Z,79.6
2017-10-19T05:47:23.124Z,79.6
2017-10-19T05:48:33.584Z,79.51
2017-10-19T05:49:43.976Z,79.7
2017-10-19T05:50:54.408Z,79.51
2017-10-19T05:52:05.755Z,79.51
2017-10-19T05:53:16.185Z,79.51
2017-10-19T05:54:25.984Z,79.32
2017-10-19T05:55:36.066Z,79.51
2017-10-19T05:56:46.128Z,79.51
2017-10-19T05:57:56.215Z,79.32
2017-10-19T05:59:06.281Z,79.51
2017-10-19T06:00:16.727Z,79.51
2017-10-19T06:01:26.800Z,79.8
2017-10-19T06:02:37.213Z,79.22
2017-10-19T06:03:47.599Z,79.13
2017-10-19T06:04:57.700Z,78.84
2017-10-19T06:06:08.200Z,78.74
2017-10-19T06:07:18.604Z,79.32
2017-10-19T06:08:28.368Z,79.22
2017-10-19T06:09:38.762Z,79.32
2017-10-19T06:10:49.154Z,79.32
2017-10-19T06:11:59.220Z,79.51
2017-10-19T06:13:09.623Z,79.22
2017-10-19T06:14:20.033Z,79.13
2017-10-19T06:15:30.107Z,79.22
2017-10-19T06:16:39.514Z,79.32
2017-10-19T06:17:49.965Z,79.41
2017-10-19T06:19:00.375Z,79.16
2017-10-19T06:20:10.781Z,79.64
2017-10-19T06:21:21.185Z,78.97
2017-10-19T06:22:31.590Z,78.59
2017-10-19T06:23:42.044Z,79.07
2017-10-19T06:24:52.442Z,79.07
2017-10-19T06:26:02.846Z,78.59
2017-10-19T06:27:13.270Z,78.78
2017-10-19T06:28:23.670Z,78.78
2017-10-19T06:29:34.062Z,78.88
2017-10-19T06:30:44.125Z,79.07
2017-10-19T06:31:54.539Z,79.07
2017-10-19T06:33:04.941Z,78.88
2017-10-19T06:34:15.342Z,79.07
2017-10-19T06:35:25.800Z,79.26
2017-10-19T06:36:36.205Z,79.3
2017-10-19T06:37:46.610Z,79.3
2017-10-19T06:38:57.000Z,79.11
2017-10-19T06:40:07.405Z,79.01
2017-10-19T06:41:17.856Z,79.01
2017-10-19T06:42:27.601Z,78.92
2017-10-19T06:43:37.674Z,78.92
2017-10-19T06:44:47.751Z,79.01
2017-10-19T06:45:57.827Z,79.01
2017-10-19T06:47:07.950Z,78.92
2017-10-19T06:48:18.363Z,78.63
2017-10-19T06:49:28.432Z,78.72
2017-10-19T06:50:38.833Z,78.72
2017-10-19T06:51:49.235Z,78.92
2017-10-19T06:53:00.492Z,79.11
2017-10-19T06:54:10.880Z,78.92
2017-10-19T06:55:20.952Z,78.67
2017-10-19T06:56:31.353Z,78.96
2017-10-19T06:57:41.814Z,78.57
2017-10-19T06:58:52.258Z,78.96
2017-10-19T07:00:02.415Z,78.86
2017-10-19T07:01:13.422Z,78.96
2017-10-19T07:02:24.430Z,78.96
2017-10-19T07:03:35.413Z,78.86
2017-10-19T07:04:46.455Z,78.77
2017-10-19T07:05:57.462Z,79.34
2017-10-19T07:07:08.423Z,78.28
2017-10-19T07:08:19.066Z,78.47
2017-10-19T07:09:30.104Z,78.52
2017-10-19T07:10:41.157Z,78.61
2017-10-19T07:11:51.798Z,78.61
2017-10-19T07:13:02.799Z,78.13
2017-10-19T07:14:13.835Z,78.13
2017-10-19T07:15:25.453Z,78.23
2017-10-19T07:16:38.681Z,78.61
2017-10-19T07:17:51.660Z,78.61
2017-10-19T07:19:05.242Z,78.61
2017-10-19T07:20:17.805Z,78.52
2017-10-19T07:21:30.854Z,78.45
2017-10-19T07:22:43.244Z,78.55
2017-10-19T07:23:55.310Z,78.65
2017-10-19T07:25:08.848Z,78.45
2017-10-19T07:26:22.497Z,78.55
2017-10-19T07:27:36.037Z,78.45
2017-10-19T07:28:50.849Z,78.27
2017-10-19T07:30:04.454Z,78.27
2017-10-19T07:31:17.924Z,78.59
2017-10-19T07:32:35.364Z,78.5
2017-10-19T07:33:50.192Z,78.69
2017-10-19T07:35:06.689Z,78.65
2017-10-19T07:36:23.216Z,78.75
2017-10-19T07:37:37.415Z,78.45
2017-10-19T07:38:51.665Z,78.36
2017-10-19T07:40:07.514Z,78.59
2017-10-19T07:41:23.015Z,78.5
2017-10-19T07:42:36.171Z,78.27
2017-10-19T07:43:48.642Z,78.4
2017-10-19T07:45:02.337Z,78.3
2017-10-19T07:46:15.902Z,78.88
2017-10-19T07:47:31.217Z,78.4
2017-10-19T07:48:47.457Z,78.78
2017-10-19T07:50:01.687Z,78.5
2017-10-19T07:51:17.678Z,78.3
2017-10-19T07:52:35.487Z,78.4
2017-10-19T07:53:52.323Z,78.3
2017-10-19T07:55:09.222Z,78.4
2017-10-19T07:56:24.428Z,78.78
2017-10-19T07:57:36.534Z,78.88
2017-10-19T07:58:48.926Z,78.4
2017-10-19T08:00:02.528Z,78.4
2017-10-19T08:01:14.621Z,78.53
2017-10-19T08:02:27.943Z,78.02
2017-10-19T08:03:42.584Z,78.34
2017-10-19T08:04:59.132Z,78.15
2017-10-19T08:06:13.784Z,78.15
2017-10-19T08:07:28.101Z,77.48
2017-10-19T08:08:42.891Z,77.86
2017-10-19T08:09:57.959Z,77.96
2017-10-19T08:11:11.927Z,77.81
2017-10-19T08:12:26.455Z,77.71
2017-10-19T08:13:39.219Z,77.61
2017-10-19T08:14:52.610Z,77.61
2017-10-19T08:16:04.781Z,77.23
2017-10-19T08:17:16.115Z,77.56
2017-10-19T08:18:29.643Z,77.26
2017-10-19T08:19:42.517Z,77.26
2017-10-19T08:20:57.031Z,77.75
2017-10-19T08:22:11.095Z,77.94
2017-10-19T08:23:25.861Z,77.84
2017-10-19T08:24:38.611Z,77.65
2017-10-19T08:25:51.397Z,77.75
2017-10-19T08:27:03.020Z,78.03
2017-10-19T08:28:17.515Z,78.38
2017-10-19T08:29:29.928Z,78.42
2017-10-19T08:30:43.786Z,78.42
2017-10-19T08:31:54.196Z,78.42
2017-10-19T08:33:04.649Z,78.33
2017-10-19T08:34:15.127Z,78.42
2017-10-19T08:35:25.204Z,78.03
2017-10-19T08:36:35.296Z,78.33
2017-10-19T08:37:45.718Z,78.42
2017-10-19T08:38:56.168Z,78.33
2017-10-19T08:40:06.598Z,78.23
2017-10-19T08:41:17.003Z,78.42
2017-10-19T08:42:26.767Z,78.42
2017-10-19T08:43:37.177Z,78.67
2017-10-19T08:44:47.614Z,78.86
2017-10-19T08:45:57.769Z,78.96
2017-10-19T08:47:08.195Z,78.67
2017-10-19T08:48:18.317Z,78.58
2017-10-19T08:49:28.742Z,78.86
2017-10-19T08:50:39.155Z,78.86
2017-10-19T08:51:49.570Z,78.48
2017-10-19T08:53:00.010Z,78.77
2017-10-19T08:54:10.105Z,78.67
2017-10-19T08:55:19.849Z,78.61
2017-10-19T08:56:31.183Z,78.33
2017-10-19T08:57:41.273Z,78.33
2017-10-19T08:58:51.681Z,78.42
2017-10-19T09:00:02.073Z,78.13
2017-10-19T09:01:12.612Z,78.42
2017-10-19T09:02:22.703Z,78.33
2017-10-19T09:03:33.150Z,78.23
2017-10-19T09:04:43.231Z,78.58
2017-10-19T09:05:53.638Z,78.48
2017-10-19T09:07:03.720Z,78.19
2017-10-19T09:08:14.122Z,79.35
2017-10-19T09:09:24.589Z,79.25
2017-10-19T09:10:35.006Z,79.44
2017-10-19T09:11:45.427Z,79.35
2017-10-19T09:12:55.840Z,78.38
2017-10-19T09:14:06.230Z,78.67
2017-10-19T09:15:15.972Z,78.58
2017-10-19T09:16:26.413Z,78.58
2017-10-19T09:17:36.488Z,78.48
2017-10-19T09:18:46.894Z,78.13
2017-10-19T09:19:57.294Z,78.23
2017-10-19T09:21:07.375Z,78.61
2017-10-19T09:22:19.041Z,78.42
2017-10-19T09:23:29.456Z,78.71
2017-10-19T09:24:39.876Z,78.61
2017-10-19T09:25:50.293Z,78.42
2017-10-19T09:27:00.115Z,78.52
2017-10-19T09:28:10.523Z,78.52
2017-10-19T09:29:20.593Z,78.42
2017-10-19T09:30:30.676Z,78.61
2017-10-19T09:31:41.092Z,78.42
2017-10-19T09:32:51.467Z,78.52
2017-10-19T09:34:02.393Z,78.81
2017-10-19T09:35:13.051Z,78.71
2017-10-19T09:36:23.486Z,78.52
2017-10-19T09:37:33.914Z,78.61
2017-10-19T09:38:44.421Z,78.61
2017-10-19T09:39:54.927Z,78.9
2017-10-19T09:41:05.485Z,78.86
2017-10-19T09:42:15.999Z,78.52
2017-10-19T09:43:26.455Z,78.61
2017-10-19T09:44:36.944Z,78.42
2017-10-19T09:45:47.397Z,78.52
2017-10-19T09:46:57.832Z,78.52
2017-10-19T09:48:08.281Z,78.42
2017-10-19T09:49:18.704Z,78.33
2017-10-19T09:50:29.189Z,77.84
2017-10-19T09:51:39.375Z,77.75
2017-10-19T09:52:49.825Z,77.75
2017-10-19T09:54:00.255Z,77.84
2017-10-19T09:55:10.685Z,77.75
2017-10-19T09:56:21.140Z,77.75
2017-10-19T09:57:31.545Z,77.75
2017-10-19T09:58:41.632Z,77.75
2017-10-19T09:59:52.078Z,77.75
2017-10-19T10:01:02.500Z,77.75
2017-10-19T10:02:12.961Z,78.42
2017-10-19T10:03:23.049Z,78.03
2017-10-19T10:04:33.511Z,77.84
2017-10-19T10:05:43.966Z,78.23
2017-10-19T10:06:55.123Z,78.03
2017-10-19T10:08:05.554Z,78.42
2017-10-19T10:09:15.659Z,77.75
2017-10-19T10:10:26.094Z,77.69
2017-10-19T10:11:36.521Z,77.88
2017-10-19T10:12:46.933Z,77.88
2017-10-19T10:13:57.403Z,77.78
2017-10-19T10:15:07.846Z,77.69
2017-10-19T10:16:18.562Z,77.83
2017-10-19T10:17:28.677Z,77.73
2017-10-19T10:18:38.447Z,77.73
2017-10-19T10:19:48.928Z,77.44
2017-10-19T10:20:59.343Z,77.44
2017-10-19T10:22:09.762Z,76.96
2017-10-19T10:23:20.178Z,77.28
2017-10-19T10:24:30.607Z,77
2017-10-19T10:25:41.097Z,77.38
2017-10-19T10:26:51.515Z,77.38
2017-10-19T10:28:01.624Z,77.63
2017-10-19T10:29:11.707Z,78.11
2017-10-19T10:30:22.160Z,78.02
2017-10-19T10:31:32.628Z,78.11
2017-10-19T10:32:43.053Z,77.92
2017-10-19T10:33:53.469Z,78.02
2017-10-19T10:35:03.888Z,77.83
2017-10-19T10:36:14.311Z,77.53
2017-10-19T10:37:24.779Z,77.38
2017-10-19T10:38:35.204Z,77.58
2017-10-19T10:39:45.647Z,77.58
2017-10-19T10:40:55.430Z,78.15
2017-10-19T10:42:05.857Z,78.25
2017-10-19T10:43:16.001Z,77.53
2017-10-19T10:44:26.438Z,77.53
2017-10-19T10:45:36.858Z,77.38
2017-10-19T10:46:46.683Z,77
2017-10-19T10:47:56.782Z,77.38
2017-10-19T10:49:06.864Z,77.28
2017-10-19T10:50:17.306Z,77.28
2017-10-19T10:51:27.725Z,77.13
2017-10-19T10:52:38.134Z,77.28
2017-10-19T10:53:48.539Z,77.58
2017-10-19T10:54:58.964Z,77.58
2017-10-19T10:56:09.379Z,77.48
2017-10-19T10:57:19.810Z,77.67
2017-10-19T10:58:29.599Z,77.48
2017-10-19T10:59:40.019Z,77.28
2017-10-19T11:00:50.502Z,77.38
2017-10-19T11:02:00.927Z,77.38
2017-10-19T11:03:11.334Z,77.19
2017-10-19T11:04:21.727Z,76.93
2017-10-19T11:05:31.821Z,77.28
2017-10-19T11:06:42.254Z,77.51
2017-10-19T11:07:52.647Z,77.48
2017-10-19T11:09:02.726Z,77.38
2017-10-19T11:10:13.117Z,77.58
2017-10-19T11:11:23.557Z,77.76
2017-10-19T11:12:34.039Z,77
2017-10-19T11:13:44.451Z,76.93
2017-10-19T11:14:54.891Z,77.19
2017-10-19T11:16:05.343Z,77.03
2017-10-19T11:17:15.761Z,77.61
2017-10-19T11:18:25.913Z,77.23
2017-10-19T11:19:36.018Z,77
2017-10-19T11:20:46.447Z,77.76
2017-10-19T11:21:56.838Z,77.58
2017-10-19T11:23:06.936Z,77.48
2017-10-19T11:24:17.402Z,77.28
2017-10-19T11:25:27.508Z,77.51
2017-10-19T11:26:37.289Z,77.81
2017-10-19T11:27:47.716Z,77.71
2017-10-19T11:28:58.141Z,77.51
2017-10-19T11:30:08.239Z,77.48
2017-10-19T11:31:18.664Z,77.86
2017-10-19T11:32:28.744Z,77.38
2017-10-19T11:33:38.832Z,77.48
2017-10-19T11:34:49.279Z,77.48
2017-10-19T11:35:59.750Z,77.86
2017-10-19T11:37:09.503Z,77.96
2017-10-19T11:38:19.919Z,78.06
2017-10-19T11:39:30.319Z,78.15
2017-10-19T11:40:40.380Z,77.96
2017-10-19T11:41:50.869Z,77.86
2017-10-19T11:43:01.658Z,78.54
2017-10-19T11:44:12.094Z,78.5
2017-10-19T11:45:22.516Z,78.88
2017-10-19T11:46:32.256Z,78.46
2017-10-19T11:47:42.330Z,79.33
2017-10-19T11:48:51.740Z,78.94
2017-10-19T11:50:02.126Z,79
2017-10-19T11:51:12.546Z,79.28
2017-10-19T11:52:22.294Z,79.19
2017-10-19T11:53:32.752Z,79.15
2017-10-19T11:54:43.168Z,79.44
2017-10-19T11:55:53.605Z,79.25
2017-10-19T11:57:04.028Z,79.21
2017-10-19T11:58:14.431Z,79.21
2017-10-19T11:59:24.533Z,79.3
2017-10-19T12:00:34.958Z,79.02
2017-10-19T12:01:45.380Z,79.3
2017-10-19T12:02:55.802Z,79.02
2017-10-19T12:04:06.250Z,78.92
2017-10-19T12:05:16.748Z,78.34
2017-10-19T12:06:27.157Z,78.73
2017-10-19T12:07:37.241Z,78
2017-10-19T12:08:47.664Z,77.33
2017-10-19T12:09:58.066Z,76.31
2017-10-19T12:11:08.534Z,76.69
2017-10-19T12:12:18.960Z,76.73
2017-10-19T12:13:29.382Z,76.34
2017-10-19T12:14:39.460Z,76.38
2017-10-19T12:15:49.881Z,76.76
2017-10-19T12:17:00.338Z,76.48
2017-10-19T12:18:10.767Z,76.18
2017-10-19T12:19:20.874Z,76.57
2017-10-19T12:20:30.970Z,76.71
2017-10-19T12:21:42.493Z,76.8
2017-10-19T12:22:52.973Z,76.71
2017-10-19T12:24:04.284Z,77
2017-10-19T12:25:14.703Z,76.8
2017-10-19T12:26:25.116Z,76.42
2017-10-19T12:27:35.908Z,76.61
2017-10-19T12:28:47.422Z,76.42
2017-10-19T12:29:59.180Z,76.42
2017-10-19T12:31:11.035Z,76.42
2017-10-19T12:32:22.572Z,76.51
2017-10-19T12:33:35.370Z,76.42
2017-10-19T12:34:47.290Z,77.19
2017-10-19T12:35:57.773Z,77.19
2017-10-19T12:37:11.063Z,77.09
2017-10-19T12:38:21.572Z,77.58
2017-10-19T12:39:31.752Z,77.58
2017-10-19T12:40:45.784Z,77.48
2017-10-19T12:42:01.749Z,77.67
2017-10-19T12:43:12.145Z,77.58
2017-10-19T12:44:22.587Z,77.67
2017-10-19T12:45:33.107Z,77.48
2017-10-19T12:46:43.582Z,77.25
2017-10-19T12:47:54.030Z,77.63
2017-10-19T12:49:04.479Z,77.63
2017-10-19T12:50:14.611Z,77.86
2017-10-19T12:51:24.800Z,77.76
2017-10-19T12:52:35.405Z,77.58
2017-10-19T12:53:45.891Z,77.19
2017-10-19T12:54:56.564Z,77.67
2017-10-19T12:56:07.786Z,77.67
2017-10-19T12:57:18.210Z,77.48
2017-10-19T12:58:28.621Z,77.48
2017-10-19T12:59:39.045Z,77.38
2017-10-19T13:00:49.139Z,77.48
2017-10-19T13:02:00.544Z,77.48
2017-10-19T13:03:10.632Z,77.38
2017-10-19T13:04:20.728Z,77.38
2017-10-19T13:05:31.137Z,77.28
2017-10-19T13:06:41.538Z,77.58
2017-10-19T13:07:52.022Z,77.67
2017-10-19T13:09:02.450Z,77.38
2017-10-19T13:10:12.515Z,77.38
2017-10-19T13:11:22.614Z,77.67
2017-10-19T13:12:32.701Z,77.76
2017-10-19T13:13:43.111Z,77.76
2017-10-19T13:14:53.203Z,77.48
2017-10-19T13:16:03.646Z,77.58
2017-10-19T13:17:13.758Z,77.67
2017-10-19T13:18:24.216Z,77.58
2017-10-19T13:19:34.360Z,77.67
2017-10-19T13:20:44.791Z,77.67
2017-10-19T13:21:55.224Z,77.86
2017-10-19T13:23:05.662Z,77.58
2017-10-19T13:24:15.751Z,77.67
2017-10-19T13:25:26.211Z,77.67
2017-10-19T13:26:36.614Z,78.02
2017-10-19T13:27:46.698Z,77.96
2017-10-19T13:28:56.796Z,77.96
2017-10-19T13:30:06.886Z,78.25
2017-10-19T13:31:17.359Z,77.83
2017-10-19T13:32:27.797Z,78.06
2017-10-19T13:33:37.882Z,77.83
2017-10-19T13:34:48.337Z,77.92
2017-10-19T13:35:59.223Z,77.92
2017-10-19T13:37:09.654Z,78.02
2017-10-19T13:38:20.073Z,77.73
2017-10-19T13:39:30.163Z,77.83
2017-10-19T13:40:40.575Z,77.83
2017-10-19T13:41:50.691Z,77.63
2017-10-19T13:43:01.154Z,77.63
2017-10-19T13:44:11.592Z,77.73
2017-10-19T13:45:21.990Z,77.83
2017-10-19T13:46:32.397Z,77.83
2017-10-19T13:47:42.487Z,78.31
2017-10-19T13:48:53.041Z,77.92
2017-10-19T13:50:03.466Z,77.63
2017-10-19T13:51:13.870Z,77.83
2017-10-19T13:52:23.954Z,78.02
2017-10-19T13:53:34.356Z,77.83
2017-10-19T13:54:44.829Z,78.11
2017-10-19T13:55:56.302Z,78.21
2017-10-19T13:57:06.456Z,78.5
2017-10-19T13:58:16.867Z,78.4
2017-10-19T13:59:27.899Z,78.27
2017-10-19T14:00:38.331Z,78.5
2017-10-19T14:01:48.751Z,78.56
2017-10-19T14:02:59.175Z,78.27
2017-10-19T14:04:09.261Z,78.56
2017-10-19T14:05:19.663Z,78.36
2017-10-19T14:06:29.743Z,78.85
2017-10-19T14:07:39.812Z,78.75
2017-10-19T14:08:50.223Z,78.65
2017-10-19T14:10:00.317Z,78.85
2017-10-19T14:11:10.739Z,78.75
2017-10-19T14:12:21.147Z,78.56
2017-10-19T14:13:31.226Z,78.9
2017-10-19T14:14:41.306Z,78.75
2017-10-19T14:15:51.064Z,78.81
2017-10-19T14:17:01.478Z,78.52
2017-10-19T14:18:11.264Z,78.61
2017-10-19T14:19:21.670Z,78.81
2017-10-19T14:20:32.068Z,78.9
2017-10-19T14:21:42.146Z,78.61
2017-10-19T14:22:52.230Z,78.52
2017-10-19T14:24:02.628Z,78.61
2017-10-19T14:25:13.035Z,78.52
2017-10-19T14:26:23.129Z,78.71
2017-10-19T14:27:33.226Z,78.42
2017-10-19T14:28:43.650Z,79.19
2017-10-19T14:29:53.402Z,78.13
2017-10-19T14:31:03.874Z,79.48
2017-10-19T14:32:14.291Z,79.05
2017-10-19T14:33:24.709Z,79.15
2017-10-19T14:34:34.779Z,79.05
2017-10-19T14:35:45.640Z,79.05
2017-10-19T14:36:56.052Z,79.05
2017-10-19T14:38:06.125Z,78.86
2017-10-19T14:39:16.212Z,78.86
2017-10-19T14:40:26.624Z,79.05
2017-10-19T14:41:36.785Z,78.86
2017-10-19T14:42:47.221Z,78.96
2017-10-19T14:43:57.647Z,78.96
2017-10-19T14:45:07.406Z,78.86
2017-10-19T14:46:17.488Z,79.15
2017-10-19T14:47:27.623Z,78.86
2017-10-19T14:48:38.037Z,79.05
2017-10-19T14:49:48.512Z,78.96
2017-10-19T14:50:58.930Z,78.86
2017-10-19T14:52:08.995Z,79.05
2017-10-19T14:53:19.137Z,79.11
2017-10-19T14:54:29.218Z,79.6
2017-10-19T14:55:39.295Z,79.3
2017-10-19T14:56:49.390Z,79.5
2017-10-19T14:57:59.807Z,79.5
2017-10-19T14:59:09.933Z,79.3
2017-10-19T15:00:20.349Z,79.3
2017-10-19T15:01:30.445Z,79.5
2017-10-19T15:02:40.552Z,79.3
2017-10-19T15:03:50.975Z,79.21
2017-10-19T15:05:01.441Z,79.3
2017-10-19T15:06:11.893Z,79.11
2017-10-19T15:07:21.982Z,78.69
2017-10-19T15:08:32.075Z,79.17
2017-10-19T15:09:42.486Z,79.27
2017-10-19T15:10:52.940Z,79.65
2017-10-19T15:12:03.369Z,79.55
2017-10-19T15:13:13.824Z,79.36
2017-10-19T15:14:24.278Z,79.36
2017-10-19T15:15:34.750Z,79.27
2017-10-19T15:16:45.229Z,79.32
2017-10-19T15:17:55.730Z,79.32
2017-10-19T15:19:06.136Z,79.42
2017-10-19T15:20:16.552Z,79.42
2017-10-19T15:21:27.316Z,79.42
2017-10-19T15:22:38.172Z,79.03
2017-10-19T15:23:48.256Z,79.71
2017-10-19T15:24:58.679Z,79.71
2017-10-19T15:26:09.085Z,79.67
2017-10-19T15:27:19.492Z,79.47
2017-10-19T15:28:29.920Z,79.86
2017-10-19T15:29:40.405Z,79.76
2017-10-19T15:30:51.071Z,79.47
2017-10-19T15:32:01.183Z,79.86
2017-10-19T15:33:11.322Z,79.86
2017-10-19T15:34:21.782Z,80.05
2017-10-19T15:35:32.189Z,79.96
2017-10-19T15:36:42.591Z,79.63
2017-10-19T15:37:53.025Z,79.57
2017-10-19T15:39:03.117Z,79.67
2017-10-19T15:40:13.231Z,79.63
2017-10-19T15:41:23.635Z,79.63
2017-10-19T15:42:33.722Z,79.82
2017-10-19T15:43:43.811Z,79.63
2017-10-19T15:44:53.901Z,79.72